Grand Forks Air Force Base
KRDR : now visible

Airfield :











YOU CAN JOIN US ON...

 
LOGIN :

Register | Disclaimer

   EN    FR    IT 

 









Legend :    VFR   Marginal VFR   IFR   Intensive IFR   Very Intensive IFR
Visi :
Ceiling :
>= 8 km
>= 3000ft
5 to 8 km
1000 to 3000 ft
1500m to 5 km
500 to 1000 ft
800 to 1500m
200 to 500 ft
< 800m
< 200 ft
Symbols :   Thunderstorms  Fog  Heavy snow  Heavy precipitations  Wind > 20 kt







- Airport Elevation : 913 ft


KRDR - Grand Forks Air Force Base

CURRENT METAR :
  • 201756Z AUTO 30009KT 10SM CLR 26/11 A2991 RMK AO2 SLP131 T02620111 10262 20166 52007

EXPIRED METARs :
  • 201656Z AUTO 33008KT 10SM CLR 25/10 A2990 RMK AO2 SLP128 T02540104
  • 201556Z AUTO 34007KT 10SM CLR 24/14 A2990 RMK AO2 SLP129 T02440136

TAF TAF KRDR
Valid from the 20 at 18:00 until the 22 at 00:00 UTC


201800Z 2018/2124 31012KT 9999 FEW065 QNH2991INS
BECMG 2112/2113 36009KT 9999 SCT015 QNH3010INS
BECMG 2115/2116 36009KT 9999 SCT026 QNH3015INS TX28/2021Z TN16/2111Z
KZMP FIR / North America



MET'MAP, your aeronautical weather chart ! - Copyright ORBIFLY December 2007 - Disclaimer

ORBIFLY MET'MAP TEAM :

Programming & Development : Alexandra Zaïnal
Concept & Development : Baudouin d'Aumeries
Co-Development & Prog : Marc-Olivier Méhu
Technical & hardware support : Manuel Goepfert

Contact : metmap@orbifly.com




SOURCES & CREDITS :

   NOAA       Earth
Advisory